Granger, Iowa
Current Conditions -  °F | °C
As of 3:35 PM on Thursday 18 Dec 2014 (Local Time) from KIKV Reporting Station
Overcast Overcast  
Wind Chill: 23°   Ceiling: 4300
Heat Index: 28°   Visibility: 10mi
Dew Point: 21°   Wind: 5mph
Humidity: 74%   Direction: 90°E
Pressure: 30.24"   Gusts: NA
Location:  41.76°N, 93.82°W
Report Text: KIKV 182135Z AUTO 09004KT 10SM BKN043 OVC050 M02/M06 A3024 RMK AO2
Loading
Personal Weather Stations






























Interactive Weather Map New forecast layout! Learn more

10-Day Weather Forecast

Advertisements
Track Severe Weather on mobile